Rechercher aéroport 
image banner adimage banner adimage banner ad
image banner ad

89CA - Swanson Ranch Nr 2 Airport

Situé à Riverdale, United States

ICAO - 89CA, IATA -

Données fournies par Airmate  

Information générale

Coordonnées: N35°38'40" W120°51'1"
Élévation : 1488 feet MSL.
Variation magnétique : 15° East
Voir autres Aéroports à California

Données opérationnelles

Special qualification required
Heure actuelle UTC:
Heure actuelle locale:
Météo à : KPRB - Paso Robles Muni ( 20 km )
METAR: KPRB 191053Z AUTO 00000KT 10SM CLR 04/02 A3003 RMK AO2 SLP168 T00440017
TAF: KPRB 190602Z 1906/2006 VRB03KT P6SM SKC FM192100 21008KT P6SM SKC FM200400 VRB03KT P6SM SKC
Voir NOTAMs / SUP AIP / TFR affectant cet aéroport [VIEW]
Fréquences de communication: [VIEW]

Pistes:

Identifiant RWYQFULongueur (ft)Largeur (ft)SurfaceLDA (ft)
04335325ASPH
22335325ASPH

Coordonnées de l'aéroport

Adresse: Riverdale United States

Vue satellite de 89CA